Canadian, Oklahoma
Current Conditions -  °F | °C
As of 6:53 AM on Thursday 23 Oct 2014 (Local Time) from KMLC Reporting Station
Overcast Overcast  
Wind Chill: 60°   Ceiling: 7500
Heat Index: 60°   Visibility: 10mi
Dew Point: 54°   Wind: 3mph
Humidity: 80%   Direction: 190°S
Pressure: 30.15"   Gusts: NA
Location:  35.18°N, 95.66°W
Report Text: KMLC 231153Z AUTO 19003KT 10SM OVC075 16/12 A3015 RMK AO2 SLP203 60000 T01560122 10178 20156 50003
Loading
Personal Weather Stations






























Interactive Weather Map
Tropical Storm Tracking
New forecast layout! Learn more

10-Day Weather Forecast

Advertisements
Track Severe Weather on mobile